createdAt,value
2023-01-22T00:01:14.494Z,1.67
2023-01-22T00:03:44.721Z,1.77
2023-01-22T00:06:12.945Z,2.25
2023-01-22T00:08:39.424Z,3.08
2023-01-22T00:11:06.452Z,3.40
2023-01-22T00:13:32.984Z,3.00
2023-01-22T00:16:00.060Z,2.78
2023-01-22T00:18:26.668Z,3.10
2023-01-22T00:20:55.030Z,3.13
2023-01-22T00:23:21.639Z,3.50
2023-01-22T00:25:48.220Z,3.38
2023-01-22T00:28:14.847Z,3.13
2023-01-22T00:30:41.335Z,3.42
2023-01-22T00:33:08.891Z,3.70
2023-01-22T00:35:35.415Z,3.45
2023-01-22T00:38:03.449Z,3.33
2023-01-22T00:40:29.918Z,3.15
2023-01-22T00:42:56.475Z,3.28
2023-01-22T00:45:22.963Z,2.95
2023-01-22T00:47:49.494Z,3.10
2023-01-22T00:50:16.477Z,3.40
2023-01-22T00:52:43.296Z,3.08
2023-01-22T00:55:11.622Z,3.00
2023-01-22T00:57:38.094Z,2.85
2023-01-22T01:00:05.143Z,2.90
2023-01-22T01:02:31.589Z,3.00
2023-01-22T01:04:58.061Z,3.17
2023-01-22T01:07:24.650Z,3.03
2023-01-22T01:09:51.117Z,2.83
2023-01-22T01:12:19.013Z,2.90
2023-01-22T01:14:45.483Z,2.83
2023-01-22T01:17:11.956Z,3.00
2023-01-22T01:19:38.471Z,2.78
2023-01-22T01:22:05.103Z,2.50
2023-01-22T01:24:31.670Z,2.53
2023-01-22T01:26:58.199Z,2.78
2023-01-22T01:29:26.242Z,2.97
2023-01-22T01:31:52.698Z,2.63
2023-01-22T01:34:19.324Z,2.70
2023-01-22T01:36:49.179Z,2.47
2023-01-22T01:39:16.132Z,2.10
2023-01-22T01:41:42.600Z,2.30
2023-01-22T01:44:10.438Z,2.70
2023-01-22T01:46:39.833Z,2.95
2023-01-22T01:49:09.034Z,2.78
2023-01-22T01:51:36.129Z,2.35
2023-01-22T01:54:03.600Z,2.47
2023-01-22T01:56:31.660Z,2.45
2023-01-22T01:59:03.471Z,2.70
2023-01-22T02:01:31.072Z,2.60
2023-01-22T02:03:59.476Z,2.63
2023-01-22T02:06:26.308Z,2.20
2023-01-22T02:08:52.841Z,2.70
2023-01-22T02:11:19.948Z,2.58
2023-01-22T02:13:48.229Z,2.60
2023-01-22T02:16:14.814Z,2.45
2023-01-22T02:18:41.351Z,2.40
2023-01-22T02:21:22.662Z,2.50
2023-01-22T02:23:53.455Z,2.75
2023-01-22T02:26:19.955Z,2.33
2023-01-22T02:28:46.412Z,2.40
2023-01-22T02:31:12.957Z,2.22
2023-01-22T02:33:39.747Z,2.55
2023-01-22T02:36:06.859Z,2.30
2023-01-22T02:38:33.349Z,2.30
2023-01-22T02:41:01.276Z,2.30
2023-01-22T02:43:27.760Z,2.58
2023-01-22T02:45:56.589Z,2.42
2023-01-22T02:48:23.159Z,2.40
2023-01-22T02:50:49.661Z,2.42
2023-01-22T02:53:16.195Z,2.22
2023-01-22T02:55:42.830Z,2.45
2023-01-22T02:58:10.711Z,2.10
2023-01-22T03:00:37.336Z,2.47
2023-01-22T03:03:03.882Z,2.50
2023-01-22T03:05:30.410Z,2.75
2023-01-22T03:07:56.943Z,2.72
2023-01-22T03:10:23.411Z,2.67
2023-01-22T03:12:50.020Z,2.95
2023-01-22T03:15:20.704Z,2.75
2023-01-22T03:17:47.135Z,2.65
2023-01-22T03:20:13.633Z,2.53
2023-01-22T03:22:40.071Z,2.40
2023-01-22T03:25:06.819Z,2.60
2023-01-22T03:27:33.337Z,2.58
2023-01-22T03:29:59.928Z,2.90
2023-01-22T03:32:27.856Z,2.75
2023-01-22T03:34:54.379Z,2.33
2023-01-22T03:37:20.928Z,2.33
2023-01-22T03:39:47.480Z,2.85
2023-01-22T03:42:14.087Z,2.50
2023-01-22T03:44:40.558Z,2.58
2023-01-22T03:47:07.082Z,2.30
2023-01-22T03:49:35.044Z,2.42
2023-01-22T03:52:01.656Z,2.50
2023-01-22T03:54:28.195Z,2.70
2023-01-22T03:56:54.871Z,2.45
2023-01-22T03:59:21.471Z,2.60
2023-01-22T04:01:47.942Z,2.60
2023-01-22T04:04:14.454Z,2.42
2023-01-22T04:06:42.408Z,2.50
2023-01-22T04:09:08.971Z,2.45
2023-01-22T04:11:35.486Z,2.55
2023-01-22T04:14:02.018Z,2.53
2023-01-22T04:16:28.586Z,2.70
2023-01-22T04:18:55.159Z,2.75
2023-01-22T04:21:21.736Z,2.53
2023-01-22T04:23:49.798Z,2.67
2023-01-22T04:26:16.267Z,2.70
2023-01-22T04:28:42.779Z,3.00
2023-01-22T04:31:09.433Z,2.53
2023-01-22T04:33:36.254Z,2.58
2023-01-22T04:36:02.811Z,2.78
2023-01-22T04:38:29.346Z,2.55
2023-01-22T04:40:57.303Z,2.85
2023-01-22T04:43:23.754Z,2.63
2023-01-22T04:45:50.653Z,2.83
2023-01-22T04:48:17.191Z,3.10
2023-01-22T04:50:45.599Z,2.58
2023-01-22T04:53:12.871Z,2.70
2023-01-22T04:55:39.383Z,2.67
2023-01-22T04:58:07.589Z,2.75
2023-01-22T05:00:34.094Z,2.60
2023-01-22T05:03:01.453Z,3.15
2023-01-22T05:05:28.500Z,3.00
2023-01-22T05:07:55.342Z,2.58
2023-01-22T05:10:22.136Z,2.92
2023-01-22T05:12:48.946Z,3.17
2023-01-22T05:15:24.069Z,3.08
2023-01-22T05:17:51.436Z,2.63
2023-01-22T05:20:18.401Z,2.90
2023-01-22T05:22:45.148Z,2.83
2023-01-22T05:25:11.848Z,2.95
2023-01-22T05:27:38.318Z,2.70
2023-01-22T05:30:05.948Z,2.90
2023-01-22T05:32:35.099Z,2.38
2023-01-22T05:35:01.578Z,2.70
2023-01-22T05:37:28.020Z,2.65
2023-01-22T05:39:54.549Z,3.00
2023-01-22T05:42:21.048Z,2.83
2023-01-22T05:44:47.539Z,2.95
2023-01-22T05:47:14.274Z,2.60
2023-01-22T05:49:42.556Z,2.50
2023-01-22T05:52:09.277Z,2.78
2023-01-22T05:54:35.811Z,2.83
2023-01-22T05:57:02.342Z,2.88
2023-01-22T05:59:28.805Z,2.63
2023-01-22T06:01:55.239Z,2.70
2023-01-22T06:04:21.645Z,2.70
2023-01-22T06:06:49.922Z,2.55
2023-01-22T06:09:16.464Z,2.63
2023-01-22T06:11:42.998Z,2.70
2023-01-22T06:14:09.538Z,2.50
2023-01-22T06:16:36.040Z,2.45
2023-01-22T06:19:02.584Z,2.42
2023-01-22T06:21:29.066Z,2.70
2023-01-22T06:23:56.962Z,2.67
2023-01-22T06:26:23.557Z,2.83
2023-01-22T06:28:49.997Z,2.72
2023-01-22T06:31:16.588Z,3.13
2023-01-22T06:33:43.169Z,2.72
2023-01-22T06:36:09.812Z,3.20
2023-01-22T06:38:36.384Z,3.25
2023-01-22T06:41:04.518Z,3.17
2023-01-22T06:43:31.239Z,2.97
2023-01-22T06:45:57.679Z,2.95
2023-01-22T06:48:24.149Z,2.88
2023-01-22T06:50:50.639Z,3.22
2023-01-22T06:53:17.105Z,3.42
2023-01-22T06:55:43.620Z,3.50
2023-01-22T06:58:11.591Z,3.40
2023-01-22T07:00:38.038Z,3.63
2023-01-22T07:03:07.689Z,3.30
2023-01-22T07:08:00.829Z,3.00
2023-01-22T07:10:27.362Z,3.22
2023-01-22T07:12:54.700Z,3.22
2023-01-22T07:15:22.681Z,3.53
2023-01-22T07:17:49.834Z,3.78
2023-01-22T07:20:17.046Z,3.40
2023-01-22T07:22:43.746Z,3.38
2023-01-22T07:25:10.254Z,3.33
2023-01-22T07:27:37.052Z,3.75
2023-01-22T07:30:04.072Z,3.67
2023-01-22T07:32:32.060Z,3.50
2023-01-22T07:34:58.561Z,3.83
2023-01-22T07:37:25.079Z,3.40
2023-01-22T07:39:51.646Z,3.75
2023-01-22T07:42:18.157Z,3.78
2023-01-22T07:44:44.615Z,3.50
2023-01-22T07:47:11.121Z,3.38
2023-01-22T07:49:39.099Z,3.63
2023-01-22T07:52:05.637Z,4.15
2023-01-22T07:54:32.185Z,3.92
2023-01-22T07:56:58.720Z,4.00
2023-01-22T07:59:25.182Z,4.72
2023-01-22T08:01:53.984Z,4.75
2023-01-22T08:04:20.594Z,4.83
2023-01-22T08:06:48.491Z,4.90
2023-01-22T08:09:15.097Z,4.43
2023-01-22T08:11:41.502Z,4.60
2023-01-22T08:14:08.048Z,4.20
2023-01-22T08:16:34.843Z,4.25
2023-01-22T08:19:01.454Z,4.00
2023-01-22T08:21:27.978Z,3.95
2023-01-22T08:23:55.865Z,4.07
2023-01-22T08:26:22.406Z,4.43
2023-01-22T08:28:49.100Z,3.80
2023-01-22T08:31:26.899Z,4.43
2023-01-22T08:33:53.839Z,4.40
2023-01-22T08:36:20.333Z,4.35
2023-01-22T08:38:46.860Z,4.28
2023-01-22T08:41:14.893Z,4.45
2023-01-22T08:43:41.443Z,4.80
2023-01-22T08:46:08.131Z,4.57
2023-01-22T08:48:34.912Z,4.38
2023-01-22T08:51:01.634Z,5.07
2023-01-22T08:53:28.494Z,4.97
2023-01-22T08:55:55.032Z,4.90
2023-01-22T08:58:23.010Z,4.72
2023-01-22T09:00:49.657Z,4.93
2023-01-22T09:03:16.208Z,4.72
2023-01-22T09:05:43.109Z,4.63
2023-01-22T09:08:09.692Z,5.13
2023-01-22T09:10:38.908Z,5.05
2023-01-22T09:13:05.595Z,5.05
2023-01-22T09:15:33.666Z,5.00
2023-01-22T09:18:00.242Z,5.47
2023-01-22T09:20:26.944Z,5.85
2023-01-22T09:22:53.478Z,5.07
2023-01-22T09:25:20.252Z,5.45
2023-01-22T09:27:46.799Z,5.45
2023-01-22T09:30:13.599Z,5.28
2023-01-22T09:32:41.669Z,5.50
2023-01-22T09:35:08.511Z,4.80
2023-01-22T09:37:34.948Z,5.03
2023-01-22T09:40:01.475Z,5.70
2023-01-22T09:42:30.888Z,6.18
2023-01-22T09:45:00.606Z,5.65
2023-01-22T09:49:57.205Z,6.15
2023-01-22T09:52:25.869Z,5.90
2023-01-22T09:54:52.375Z,5.80
2023-01-22T09:57:31.104Z,5.32
2023-01-22T09:59:58.414Z,6.38
2023-01-22T10:02:27.089Z,6.05
2023-01-22T10:04:57.565Z,5.85
2023-01-22T10:07:26.662Z,5.80
2023-01-22T10:09:54.789Z,5.82
2023-01-22T10:12:21.286Z,6.22
2023-01-22T10:14:55.597Z,5.57
2023-01-22T10:17:23.882Z,31.23
2023-01-22T10:19:52.191Z,11.48
2023-01-22T10:22:20.931Z,5.60
2023-01-22T10:24:47.388Z,5.47
2023-01-22T10:27:15.060Z,5.03
2023-01-22T10:29:43.809Z,5.38
2023-01-22T10:32:16.966Z,5.20
2023-01-22T10:34:43.544Z,5.50
2023-01-22T10:37:13.463Z,5.45
2023-01-22T10:39:42.278Z,5.30
2023-01-22T10:42:15.639Z,6.17
2023-01-22T10:44:42.077Z,5.80
2023-01-22T10:47:10.256Z,5.97
2023-01-22T10:49:36.796Z,5.30
2023-01-22T10:52:05.646Z,5.80
2023-01-22T10:54:33.964Z,5.57
2023-01-22T10:57:06.442Z,5.38
2023-01-22T10:59:33.490Z,5.13
2023-01-22T11:02:01.762Z,5.47
2023-01-22T11:04:29.544Z,5.60
2023-01-22T11:06:58.723Z,5.60
2023-01-22T11:09:27.620Z,6.05
2023-01-22T11:11:57.832Z,6.65
2023-01-22T11:14:27.587Z,6.55
2023-01-22T11:16:55.548Z,7.13
2023-01-22T11:19:36.621Z,6.45
2023-01-22T11:22:06.026Z,6.88
2023-01-22T11:24:36.735Z,7.38
2023-01-22T11:27:08.187Z,6.90
2023-01-22T11:29:47.256Z,7.15
2023-01-22T11:32:25.777Z,6.78
2023-01-22T11:34:56.475Z,6.88
2023-01-22T11:37:29.169Z,7.45
2023-01-22T11:40:01.433Z,7.03
2023-01-22T11:42:34.927Z,7.53
2023-01-22T11:45:08.346Z,7.10
2023-01-22T11:47:49.711Z,6.32
2023-01-22T11:50:20.417Z,6.22
2023-01-22T11:52:48.977Z,6.30
2023-01-22T11:55:28.775Z,5.88
2023-01-22T11:58:00.623Z,5.63
2023-01-22T12:00:42.057Z,5.95
2023-01-22T12:03:38.276Z,5.55
2023-01-22T12:06:12.994Z,5.10
2023-01-22T12:08:46.011Z,5.47
2023-01-22T12:11:27.692Z,5.75
2023-01-22T12:14:15.105Z,5.20
2023-01-22T12:16:48.372Z,4.97
2023-01-22T12:19:24.140Z,5.30
2023-01-22T12:21:56.433Z,5.68
2023-01-22T12:24:26.124Z,5.53
2023-01-22T12:29:21.652Z,5.20
2023-01-22T12:31:50.379Z,5.30
2023-01-22T12:34:20.748Z,5.07
2023-01-22T12:36:47.898Z,5.95
2023-01-22T12:39:19.992Z,7.15
2023-01-22T12:41:52.511Z,6.30
2023-01-22T12:44:24.063Z,6.40
2023-01-22T12:46:54.266Z,6.10
2023-01-22T12:49:22.338Z,6.00
2023-01-22T12:51:49.852Z,6.03
2023-01-22T12:54:18.844Z,6.10
2023-01-22T12:56:45.586Z,6.50
2023-01-22T12:59:29.137Z,6.60
2023-01-22T13:01:58.692Z,6.22
2023-01-22T13:04:29.595Z,6.75
2023-01-22T13:07:03.984Z,6.50
2023-01-22T13:09:35.961Z,6.65
2023-01-22T13:12:08.225Z,5.72
2023-01-22T13:14:36.088Z,5.97
2023-01-22T13:17:04.735Z,5.78
2023-01-22T13:19:36.407Z,6.00
2023-01-22T13:22:03.323Z,5.18
2023-01-22T13:24:30.877Z,5.72
2023-01-22T13:27:00.646Z,5.65
2023-01-22T13:29:28.750Z,6.07
2023-01-22T13:31:56.460Z,5.65
2023-01-22T13:34:23.165Z,6.25
2023-01-22T13:36:54.624Z,6.43
2023-01-22T13:39:24.985Z,6.57
2023-01-22T13:41:52.888Z,6.88
2023-01-22T13:44:23.816Z,6.75
2023-01-22T13:46:51.171Z,7.13
2023-01-22T13:49:21.309Z,6.50
2023-01-22T13:51:48.249Z,6.53
2023-01-22T13:54:18.981Z,5.95
2023-01-22T13:56:46.159Z,5.93
2023-01-22T13:59:18.681Z,5.97
2023-01-22T14:01:46.227Z,6.00
2023-01-22T14:04:26.615Z,6.18
2023-01-22T14:06:53.276Z,6.55
2023-01-22T14:09:31.481Z,6.88
2023-01-22T14:11:59.087Z,6.93
2023-01-22T14:14:26.248Z,6.97
2023-01-22T14:16:53.369Z,6.90
2023-01-22T14:19:23.437Z,7.03
2023-01-22T14:21:50.309Z,9.25
2023-01-22T14:24:23.158Z,8.02
2023-01-22T14:26:51.391Z,8.02
2023-01-22T14:29:19.056Z,7.47
2023-01-22T14:31:45.795Z,8.00
2023-01-22T14:34:12.422Z,8.15
2023-01-22T14:36:39.067Z,8.07
2023-01-22T14:39:06.863Z,8.20
2023-01-22T14:41:33.539Z,8.60
2023-01-22T14:44:07.607Z,8.68
2023-01-22T14:46:34.319Z,8.60
2023-01-22T14:49:00.920Z,8.52
2023-01-22T14:51:28.023Z,7.95
2023-01-22T14:53:54.916Z,8.27
2023-01-22T14:56:21.506Z,8.60
2023-01-22T14:58:48.201Z,8.55
2023-01-22T15:01:17.677Z,8.75
2023-01-22T15:03:44.248Z,8.52
2023-01-22T15:06:11.899Z,9.35
2023-01-22T15:08:38.475Z,8.63
2023-01-22T15:11:07.522Z,9.68
2023-01-22T15:13:34.475Z,8.50
2023-01-22T15:16:07.807Z,8.85
2023-01-22T15:18:36.459Z,8.38
2023-01-22T15:21:03.040Z,8.27
2023-01-22T15:23:29.581Z,8.48
2023-01-22T15:25:57.826Z,8.93
2023-01-22T15:28:24.567Z,8.82
2023-01-22T15:31:01.005Z,9.40
2023-01-22T15:33:27.948Z,7.65
2023-01-22T15:35:56.128Z,8.60
2023-01-22T15:38:22.719Z,9.93
2023-01-22T15:40:49.303Z,9.18
2023-01-22T15:43:15.869Z,10.85
2023-01-22T15:45:42.461Z,8.63
2023-01-22T15:48:09.153Z,9.32
2023-01-22T15:50:35.687Z,10.02
2023-01-22T15:53:03.820Z,9.27
2023-01-22T15:55:30.618Z,9.90
2023-01-22T15:57:57.673Z,9.25
2023-01-22T16:00:24.348Z,8.50
2023-01-22T16:02:50.828Z,9.48
2023-01-22T16:05:17.691Z,9.50
2023-01-22T16:07:44.386Z,9.73
2023-01-22T16:10:12.672Z,10.15
2023-01-22T16:12:39.187Z,9.75
2023-01-22T16:15:06.385Z,9.43
2023-01-22T16:17:32.980Z,9.38
2023-01-22T16:19:59.611Z,10.13
2023-01-22T16:22:26.287Z,10.13
2023-01-22T16:24:52.816Z,9.43
2023-01-22T16:27:21.072Z,10.25
2023-01-22T16:29:47.646Z,9.00
2023-01-22T16:32:14.195Z,9.68
2023-01-22T16:34:40.985Z,8.85
2023-01-22T16:37:07.620Z,10.00
2023-01-22T16:39:34.164Z,9.63
2023-01-22T16:42:00.894Z,9.85
2023-01-22T16:44:28.985Z,10.65
2023-01-22T16:46:55.954Z,10.73
2023-01-22T16:49:23.883Z,9.13
2023-01-22T16:51:52.736Z,9.18
2023-01-22T16:54:20.071Z,8.87
2023-01-22T16:56:49.087Z,9.63
2023-01-22T16:59:16.106Z,10.35
2023-01-22T17:01:44.710Z,10.55
2023-01-22T17:04:11.606Z,9.95
2023-01-22T17:06:39.768Z,8.65
2023-01-22T17:09:06.688Z,8.90
2023-01-22T17:11:33.283Z,9.55
2023-01-22T17:14:00.215Z,9.15
2023-01-22T17:16:26.752Z,9.30
2023-01-22T17:18:55.166Z,9.75
2023-01-22T17:21:22.179Z,10.07
2023-01-22T17:23:48.698Z,9.93
2023-01-22T17:26:16.569Z,9.35
2023-01-22T17:28:43.571Z,9.57
2023-01-22T17:31:13.290Z,8.90
2023-01-22T17:33:39.888Z,9.65
2023-01-22T17:36:11.029Z,9.80
2023-01-22T17:38:38.909Z,9.65
2023-01-22T17:41:06.950Z,9.18
2023-01-22T17:43:33.928Z,9.43
2023-01-22T17:46:00.811Z,9.70
2023-01-22T17:48:27.382Z,10.60
2023-01-22T17:50:53.889Z,9.50
2023-01-22T17:53:21.917Z,10.23
2023-01-22T17:55:48.459Z,10.77
2023-01-22T17:58:14.951Z,10.80
2023-01-22T18:00:41.490Z,10.95
2023-01-22T18:03:07.975Z,9.60
2023-01-22T18:05:34.507Z,9.40
2023-01-22T18:08:01.103Z,9.35
2023-01-22T18:10:29.175Z,9.57
2023-01-22T18:12:55.829Z,8.32
2023-01-22T18:15:22.411Z,9.27
2023-01-22T18:17:49.428Z,10.57
2023-01-22T18:20:16.487Z,10.57
2023-01-22T18:22:43.025Z,10.57
2023-01-22T18:25:09.752Z,10.55
2023-01-22T18:27:37.728Z,10.93
2023-01-22T18:30:04.778Z,10.95
2023-01-22T18:32:31.279Z,11.30
2023-01-22T18:34:57.811Z,10.90
2023-01-22T18:37:24.252Z,10.93
2023-01-22T18:39:50.796Z,10.70
2023-01-22T18:42:17.310Z,10.95
2023-01-22T18:44:45.312Z,11.70
2023-01-22T18:47:11.823Z,11.55
2023-01-22T18:49:38.376Z,11.65
2023-01-22T18:52:05.985Z,11.75
2023-01-22T18:54:32.464Z,11.55
2023-01-22T18:57:00.216Z,12.35
2023-01-22T18:59:26.797Z,11.77
2023-01-22T19:01:54.831Z,12.68
2023-01-22T19:04:21.425Z,12.55
2023-01-22T19:06:50.050Z,12.90
2023-01-22T19:09:16.507Z,12.15
2023-01-22T19:11:43.958Z,12.35
2023-01-22T19:14:13.044Z,12.45
2023-01-22T19:16:39.597Z,12.15
2023-01-22T19:19:08.487Z,12.05
2023-01-22T19:21:35.037Z,12.48
2023-01-22T19:24:01.857Z,12.60
2023-01-22T19:26:29.977Z,13.18
2023-01-22T19:28:57.630Z,13.77
2023-01-22T19:31:25.461Z,13.35
2023-01-22T19:33:53.106Z,12.88
2023-01-22T19:36:22.423Z,13.70
2023-01-22T19:38:49.469Z,12.82
2023-01-22T19:41:16.310Z,13.00
2023-01-22T19:43:42.850Z,12.75
2023-01-22T19:46:10.731Z,12.75
2023-01-22T19:48:37.817Z,13.63
2023-01-22T19:51:05.382Z,12.75
2023-01-22T19:53:33.909Z,12.70
2023-01-22T19:56:00.537Z,13.20
2023-01-22T19:58:27.620Z,14.07
2023-01-22T20:00:54.679Z,13.27
2023-01-22T20:03:21.707Z,13.20
2023-01-22T20:05:48.323Z,13.18
2023-01-22T20:08:15.006Z,13.30
2023-01-22T20:10:43.137Z,13.60
2023-01-22T20:13:10.637Z,13.43
2023-01-22T20:15:37.961Z,13.90
2023-01-22T20:18:04.751Z,13.43
2023-01-22T20:20:31.457Z,13.32
2023-01-22T20:22:59.605Z,13.43
2023-01-22T20:25:26.432Z,13.75
2023-01-22T20:27:54.341Z,13.50
2023-01-22T20:30:20.973Z,14.48
2023-01-22T20:32:51.953Z,13.10
2023-01-22T20:35:19.140Z,13.18
2023-01-22T20:37:46.001Z,14.57
2023-01-22T20:40:12.826Z,13.55
2023-01-22T20:42:39.376Z,13.63
2023-01-22T20:45:07.998Z,14.27
2023-01-22T20:47:34.484Z,13.98
2023-01-22T20:50:00.956Z,14.65
2023-01-22T20:52:27.514Z,14.75
2023-01-22T20:55:01.323Z,14.65
2023-01-22T20:57:28.930Z,15.48
2023-01-22T20:59:55.474Z,15.82
2023-01-22T21:02:23.528Z,15.98
2023-01-22T21:04:50.682Z,13.93
2023-01-22T21:07:17.251Z,14.63
2023-01-22T21:09:43.918Z,11.32
2023-01-22T21:12:10.602Z,9.68
2023-01-22T21:14:37.145Z,10.15
2023-01-22T21:17:03.795Z,9.60
2023-01-22T21:19:32.103Z,9.43
2023-01-22T21:21:58.689Z,10.73
2023-01-22T21:24:25.276Z,10.65
2023-01-22T21:26:51.978Z,11.30
2023-01-22T21:29:20.092Z,11.15
2023-01-22T21:31:47.141Z,11.85
2023-01-22T21:34:13.651Z,12.05
2023-01-22T21:36:42.117Z,11.77
2023-01-22T21:39:10.119Z,12.75
2023-01-22T21:41:37.325Z,12.77
2023-01-22T21:44:03.970Z,12.73
2023-01-22T21:46:32.095Z,13.13
2023-01-22T21:48:59.310Z,12.38
2023-01-22T21:51:26.024Z,14.13
2023-01-22T21:53:54.140Z,12.98
2023-01-22T21:56:20.671Z,13.35
2023-01-22T21:58:47.709Z,12.82
2023-01-22T22:01:16.195Z,13.40
2023-01-22T22:03:42.825Z,12.77
2023-01-22T22:06:10.726Z,13.60
2023-01-22T22:08:37.534Z,12.82
2023-01-22T22:11:05.820Z,14.13
2023-01-22T22:13:48.657Z,12.57
2023-01-22T22:16:25.932Z,12.50
2023-01-22T22:22:19.501Z,11.75
2023-01-22T22:25:00.569Z,12.90
2023-01-22T22:27:42.399Z,11.57
2023-01-22T22:30:10.086Z,11.55
2023-01-22T22:33:03.120Z,11.75
2023-01-22T22:35:52.038Z,11.15
2023-01-22T22:38:42.698Z,11.18
2023-01-22T22:48:06.022Z,11.23
2023-01-22T22:50:56.390Z,9.80
2023-01-22T22:53:22.994Z,9.38
2023-01-22T22:55:49.532Z,9.55
2023-01-22T22:58:16.027Z,10.52
2023-01-22T23:00:44.241Z,9.90
2023-01-22T23:03:10.841Z,9.93
2023-01-22T23:05:37.569Z,10.30
2023-01-22T23:08:04.614Z,10.40
2023-01-22T23:10:31.227Z,10.52
2023-01-22T23:12:58.359Z,10.20
2023-01-22T23:15:25.563Z,10.55
2023-01-22T23:17:53.891Z,10.45
2023-01-22T23:20:20.708Z,10.50
2023-01-22T23:22:47.567Z,10.02
2023-01-22T23:25:14.038Z,10.18
2023-01-22T23:27:40.546Z,11.93
2023-01-22T23:30:07.769Z,13.55
2023-01-22T23:32:34.246Z,13.05
2023-01-22T23:35:02.245Z,12.30
2023-01-22T23:37:28.732Z,13.32
2023-01-22T23:39:55.201Z,13.35
2023-01-22T23:42:21.825Z,13.45
2023-01-22T23:44:48.337Z,12.73
2023-01-22T23:47:14.873Z,13.13
2023-01-22T23:49:41.457Z,13.55
2023-01-22T23:52:09.390Z,13.30
2023-01-22T23:54:35.830Z,13.43
2023-01-22T23:57:02.347Z,13.73
2023-01-22T23:59:28.825Z,12.73
